KGEG/GEG METAR and TAF weather

Enter ICAO airport designator
Station Type Date Time Source
KGEG METAR 2022/01/25 04:53 UTC NOAA

KGEG 250453Z 32003KT 1/2SM R21/P6000FT BR FEW002 OVC003 M02/M03 A3033 RMK AO2 SFC VIS 3 SLP297 T10221033


Station Type Date Time Source
KGEG Decoded METAR 2022/01/25 04:53 UTC NOAA

SPOKANE INTERNATIONAL AIRPORT , WA, United States (KGEG) 47-37N 117-32W 735M
Jan 24, 2022 - 11:53 PM EST / 2022.01.25 0453 UTC
Wind: from the NW (320 degrees) at 3 MPH (3 KT):0
Visibility: 1/2 mile(s):0
Sky conditions: overcast
Weather: mist
Temperature: 28.0 F (-2.2 C)
Dew Point: 26.1 F (-3.3 C)
Relative Humidity: 92%
Pressure (altimeter): 30.33 in. Hg (1027 hPa)
ob: KGEG 250453Z 32003KT 1/2SM R21/P6000FT BR FEW002 OVC003 M02/M03 A3033 RMK AO2 SFC VIS 3 SLP297 T10221033
cycle: 5

Station Type Date Time Source
KGEG TAF 2022/01/24 21:12 UTC NOAA

TAF
AMD KGEG 242111Z 2421/2518 VRB03KT P6SM OVC006
FM250300 VRB02KT 1SM BR OVC003
FM250700 VRB03KT 1/4SM FZFG SCT001 OVC002

Example: see airport list